createdAt,value
2022-09-21T00:01:32.835Z,79.45
2022-09-21T00:04:02.618Z,79.21
2022-09-21T00:06:33.009Z,79.80
2022-09-21T00:09:01.105Z,79.33
2022-09-21T00:11:32.559Z,78.87
2022-09-21T00:14:04.206Z,79.58
2022-09-21T00:16:33.107Z,79.83
2022-09-21T00:19:01.309Z,79.59
2022-09-21T00:21:29.622Z,80.04
2022-09-21T00:23:59.146Z,79.89
2022-09-21T00:26:28.477Z,79.73
2022-09-21T00:28:59.289Z,79.48
2022-09-21T00:31:27.931Z,79.26
2022-09-21T00:33:55.810Z,79.89
2022-09-21T00:36:26.271Z,79.92
2022-09-21T00:38:56.491Z,80.30
2022-09-21T00:41:25.043Z,79.79
2022-09-21T00:44:21.391Z,80.04
2022-09-21T00:46:52.626Z,80.02
2022-09-21T00:49:23.018Z,79.80
2022-09-21T00:51:53.196Z,79.78
2022-09-21T00:54:26.038Z,79.62
2022-09-21T00:57:19.537Z,79.97
2022-09-21T00:59:57.774Z,79.74
2022-09-21T01:02:26.666Z,79.82
2022-09-21T01:04:56.239Z,80.18
2022-09-21T01:07:27.761Z,79.79
2022-09-21T01:09:59.056Z,79.85
2022-09-21T01:12:49.300Z,79.84
2022-09-21T01:15:30.258Z,79.89
2022-09-21T01:18:10.177Z,80.36
2022-09-21T01:21:18.166Z,79.75
2022-09-21T01:24:22.422Z,79.87
2022-09-21T01:27:15.676Z,79.57
2022-09-21T01:29:51.167Z,80.68
2022-09-21T01:32:23.685Z,80.00
2022-09-21T01:34:55.942Z,80.04
2022-09-21T01:37:29.778Z,79.86
2022-09-21T01:40:03.709Z,79.68
2022-09-21T01:42:34.647Z,80.29
2022-09-21T01:45:07.132Z,79.78
2022-09-21T01:47:37.588Z,80.15
2022-09-21T01:50:59.488Z,79.57
2022-09-21T01:53:34.695Z,80.18
2022-09-21T01:56:08.556Z,80.46
2022-09-21T01:58:40.562Z,79.95
2022-09-21T02:01:19.193Z,80.11
2022-09-21T02:03:52.347Z,80.18
2022-09-21T02:06:21.056Z,80.17
2022-09-21T02:08:49.558Z,79.95
2022-09-21T02:11:17.397Z,80.35
2022-09-21T02:13:48.030Z,80.15
2022-09-21T02:16:35.512Z,80.14
2022-09-21T02:19:12.121Z,80.09
2022-09-21T02:21:51.440Z,80.00
2022-09-21T02:24:28.922Z,80.32
2022-09-21T02:27:06.957Z,80.15
2022-09-21T02:29:46.533Z,80.41
2022-09-21T02:32:24.436Z,80.61
2022-09-21T02:34:55.295Z,80.55
2022-09-21T02:37:31.202Z,80.12
2022-09-21T02:40:17.529Z,80.55
2022-09-21T02:42:50.761Z,80.30
2022-09-21T02:45:25.904Z,80.34
2022-09-21T02:48:00.132Z,80.07
2022-09-21T02:50:34.603Z,80.51
2022-09-21T02:53:04.815Z,80.68
2022-09-21T02:55:36.166Z,80.02
2022-09-21T02:58:07.193Z,79.92
2022-09-21T03:00:36.859Z,80.16
2022-09-21T03:03:18.131Z,79.69
2022-09-21T03:05:48.785Z,80.47
2022-09-21T03:08:19.338Z,80.27
2022-09-21T03:10:49.183Z,79.99
2022-09-21T03:13:18.390Z,80.19
2022-09-21T03:15:49.033Z,80.16
2022-09-21T03:18:18.326Z,80.19
2022-09-21T03:20:47.107Z,80.44
2022-09-21T03:23:17.992Z,80.53
2022-09-21T03:25:46.486Z,80.46
2022-09-21T03:28:17.736Z,80.59
2022-09-21T03:30:45.595Z,80.33
2022-09-21T03:33:22.043Z,80.92
2022-09-21T03:35:50.063Z,80.78
2022-09-21T03:38:18.480Z,80.59
2022-09-21T03:40:47.568Z,80.36
2022-09-21T03:43:15.478Z,80.32
2022-09-21T03:45:48.262Z,80.51
2022-09-21T03:48:16.816Z,80.60
2022-09-21T03:50:48.703Z,80.72
2022-09-21T03:53:16.907Z,80.52
2022-09-21T03:55:44.890Z,80.49
2022-09-21T03:58:12.847Z,80.51
2022-09-21T04:00:40.699Z,80.72
2022-09-21T04:03:08.420Z,80.67
2022-09-21T04:05:36.277Z,80.82
2022-09-21T04:08:05.862Z,80.69
2022-09-21T04:10:33.862Z,80.64
2022-09-21T04:13:03.413Z,80.27
2022-09-21T04:15:31.809Z,80.42
2022-09-21T04:18:00.299Z,80.43
2022-09-21T04:20:28.388Z,80.72
2022-09-21T04:22:58.571Z,80.97
2022-09-21T04:25:28.028Z,80.98
2022-09-21T04:27:58.631Z,80.65
2022-09-21T04:30:27.873Z,80.65
2022-09-21T04:32:55.711Z,81.09
2022-09-21T04:35:23.690Z,80.65
2022-09-21T04:37:57.753Z,80.57
2022-09-21T04:40:28.200Z,81.01
2022-09-21T04:42:56.388Z,80.65
2022-09-21T04:45:49.285Z,80.88
2022-09-21T04:48:17.506Z,81.30
2022-09-21T04:50:45.591Z,80.87
2022-09-21T04:53:13.411Z,80.70
2022-09-21T04:55:42.665Z,80.63
2022-09-21T04:58:13.531Z,80.59
2022-09-21T05:00:44.009Z,80.62
2022-09-21T05:03:11.960Z,80.56
2022-09-21T05:05:40.010Z,80.66
2022-09-21T05:08:10.709Z,80.61
2022-09-21T05:10:37.649Z,80.87
2022-09-21T05:13:09.874Z,80.65
2022-09-21T05:15:39.349Z,80.81
2022-09-21T05:18:10.105Z,80.92
2022-09-21T05:20:37.957Z,80.49
2022-09-21T05:23:08.022Z,80.60
2022-09-21T05:25:37.949Z,80.50
2022-09-21T05:28:06.883Z,80.46
2022-09-21T05:30:36.884Z,80.55
2022-09-21T05:33:05.729Z,80.84
2022-09-21T05:35:39.458Z,80.59
2022-09-21T05:38:13.973Z,80.31
2022-09-21T05:40:42.231Z,80.37
2022-09-21T05:43:10.777Z,80.24
2022-09-21T05:45:52.128Z,80.22
2022-09-21T05:48:23.552Z,80.17
2022-09-21T05:51:01.021Z,79.92
2022-09-21T06:02:14.113Z,78.57
2022-09-21T06:04:42.622Z,78.23
2022-09-21T06:07:10.435Z,78.00
2022-09-21T06:09:42.959Z,77.55
2022-09-21T06:12:11.710Z,77.86
2022-09-21T06:14:39.974Z,77.82
2022-09-21T06:17:09.244Z,77.72
2022-09-21T06:19:37.196Z,77.66
2022-09-21T06:22:05.097Z,78.42
2022-09-21T06:24:32.876Z,77.98
2022-09-21T06:27:01.284Z,77.77
2022-09-21T06:29:29.182Z,78.09
2022-09-21T06:31:59.852Z,78.10
2022-09-21T06:34:29.110Z,78.50
2022-09-21T06:36:57.018Z,78.29
2022-09-21T06:39:25.153Z,77.75
2022-09-21T06:41:53.742Z,78.16
2022-09-21T06:44:21.831Z,78.03
2022-09-21T06:46:49.680Z,78.56
2022-09-21T06:49:17.801Z,78.27
2022-09-21T06:51:48.486Z,78.15
2022-09-21T06:54:17.556Z,78.34
2022-09-21T06:56:45.469Z,77.85
2022-09-21T06:59:13.866Z,78.21
2022-09-21T07:01:42.820Z,77.83
2022-09-21T07:04:16.631Z,78.02
2022-09-21T07:06:44.469Z,77.62
2022-09-21T07:12:01.703Z,77.74
2022-09-21T07:14:29.461Z,76.87
2022-09-21T07:16:57.567Z,77.13
2022-09-21T07:19:25.299Z,77.03
2022-09-21T07:21:54.552Z,76.73
2022-09-21T07:24:23.747Z,75.94
2022-09-21T07:26:54.493Z,76.10
2022-09-21T07:29:22.394Z,75.94
2022-09-21T07:31:57.452Z,75.91
2022-09-21T07:34:25.586Z,76.17
2022-09-21T07:36:54.053Z,75.71
2022-09-21T07:39:23.341Z,75.94
2022-09-21T07:41:51.448Z,75.73
2022-09-21T07:44:25.551Z,75.55
2022-09-21T07:46:53.710Z,75.43
2022-09-21T07:49:21.659Z,75.01
2022-09-21T07:51:49.644Z,74.59
2022-09-21T07:54:17.625Z,75.17
2022-09-21T07:57:06.820Z,74.72
2022-09-21T07:59:33.760Z,75.36
2022-09-21T08:02:02.093Z,74.55
2022-09-21T08:04:30.033Z,74.33
2022-09-21T08:06:57.986Z,74.49
2022-09-21T08:09:25.935Z,74.22
2022-09-21T08:11:55.671Z,73.90
2022-09-21T08:14:26.550Z,74.23
2022-09-21T08:16:54.779Z,73.65
2022-09-21T08:19:25.873Z,73.88
2022-09-21T08:21:57.615Z,73.29
2022-09-21T08:24:27.094Z,73.59
2022-09-21T08:26:56.863Z,73.54
2022-09-21T08:29:24.966Z,73.11
2022-09-21T08:31:53.365Z,73.25
2022-09-21T08:34:21.330Z,72.85
2022-09-21T08:36:54.405Z,72.91
2022-09-21T08:39:23.954Z,72.92
2022-09-21T08:42:14.795Z,72.73
2022-09-21T08:44:47.158Z,72.46
2022-09-21T08:47:19.637Z,72.67
2022-09-21T08:49:53.211Z,72.45
2022-09-21T08:52:25.732Z,72.43
2022-09-21T08:54:57.795Z,72.49
2022-09-21T08:57:31.404Z,72.28
2022-09-21T09:00:02.644Z,71.95
2022-09-21T09:03:07.199Z,71.81
2022-09-21T09:05:49.532Z,71.99
2022-09-21T09:08:29.894Z,71.19
2022-09-21T09:11:14.299Z,71.38
2022-09-21T09:14:10.637Z,71.36
2022-09-21T09:16:51.888Z,71.25
2022-09-21T09:19:29.244Z,71.07
2022-09-21T09:21:57.755Z,70.75
2022-09-21T09:24:34.292Z,70.65
2022-09-21T09:27:07.582Z,70.14
2022-09-21T09:30:00.659Z,70.32
2022-09-21T09:32:35.592Z,70.55
2022-09-21T09:35:22.504Z,70.56
2022-09-21T09:37:52.044Z,69.97
2022-09-21T09:40:28.909Z,70.08
2022-09-21T09:43:20.728Z,70.13
2022-09-21T09:46:00.338Z,69.48
2022-09-21T09:48:39.366Z,69.21
2022-09-21T09:51:12.436Z,69.70
2022-09-21T09:53:41.562Z,69.72
2022-09-21T09:56:14.928Z,69.53
2022-09-21T09:58:49.750Z,69.11
2022-09-21T10:01:42.843Z,68.95
2022-09-21T10:04:12.428Z,68.81
2022-09-21T10:06:46.430Z,69.27
2022-09-21T10:09:25.821Z,69.35
2022-09-21T10:12:16.884Z,67.99
2022-09-21T10:14:51.108Z,68.03
2022-09-21T10:17:21.020Z,64.05
2022-09-21T10:19:49.080Z,68.71
2022-09-21T10:22:19.155Z,68.55
2022-09-21T10:24:52.819Z,68.15
2022-09-21T10:27:25.023Z,67.80
2022-09-21T10:29:53.010Z,67.22
2022-09-21T10:32:27.227Z,67.35
2022-09-21T10:35:02.435Z,64.69
2022-09-21T10:37:34.728Z,67.23
2022-09-21T10:40:23.378Z,67.63
2022-09-21T10:42:53.373Z,67.43
2022-09-21T10:45:29.379Z,66.56
2022-09-21T10:48:09.591Z,66.83
2022-09-21T10:50:39.260Z,67.00
2022-09-21T10:53:15.358Z,66.30
2022-09-21T10:55:58.520Z,66.41
2022-09-21T10:58:36.819Z,66.94
2022-09-21T11:01:16.463Z,66.99
2022-09-21T11:03:56.779Z,66.22
2022-09-21T11:06:29.194Z,65.79
2022-09-21T11:09:06.835Z,66.05
2022-09-21T11:11:48.238Z,65.67
2022-09-21T11:14:26.112Z,65.74
2022-09-21T11:16:58.455Z,65.81
2022-09-21T11:19:36.690Z,66.08
2022-09-21T11:22:13.064Z,65.91
2022-09-21T11:24:50.131Z,66.46
2022-09-21T11:27:24.377Z,66.51
2022-09-21T11:30:03.337Z,67.46
2022-09-21T11:32:43.961Z,67.57
2022-09-21T11:35:42.510Z,66.20
2022-09-21T11:38:19.793Z,66.49
2022-09-21T11:41:24.789Z,66.52
2022-09-21T11:44:19.090Z,66.03
2022-09-21T11:46:53.083Z,65.37
2022-09-21T11:49:37.448Z,65.28
2022-09-21T11:52:17.043Z,59.87
2022-09-21T11:55:07.406Z,64.76
2022-09-21T11:57:41.921Z,64.96
2022-09-21T12:00:15.731Z,65.45
2022-09-21T12:03:13.703Z,60.53
2022-09-21T12:05:52.536Z,65.71
2022-09-21T12:08:39.671Z,65.94
2022-09-21T12:11:17.007Z,65.84
2022-09-21T12:13:52.517Z,65.58
2022-09-21T12:16:42.351Z,65.71
2022-09-21T12:19:24.019Z,65.77
2022-09-21T12:22:01.115Z,65.46
2022-09-21T12:24:34.096Z,65.62
2022-09-21T12:27:08.369Z,65.49
2022-09-21T12:29:47.195Z,64.90
2022-09-21T12:32:22.600Z,64.39
2022-09-21T12:34:55.756Z,64.60
2022-09-21T12:37:28.219Z,64.51
2022-09-21T12:40:02.854Z,63.47
2022-09-21T12:42:35.771Z,64.37
2022-09-21T12:45:13.134Z,64.96
2022-09-21T12:47:52.885Z,65.00
2022-09-21T12:50:26.463Z,65.57
2022-09-21T12:52:56.095Z,65.66
2022-09-21T12:55:35.653Z,65.55
2022-09-21T12:58:16.245Z,65.21
2022-09-21T13:01:09.245Z,65.28
2022-09-21T13:03:44.567Z,64.61
2022-09-21T13:06:50.472Z,64.74
2022-09-21T13:09:20.718Z,64.08
2022-09-21T13:11:56.723Z,63.37
2022-09-21T13:14:28.096Z,63.94
2022-09-21T13:17:00.446Z,63.59
2022-09-21T13:19:31.392Z,64.00
2022-09-21T13:22:19.036Z,62.81
2022-09-21T13:25:03.201Z,62.81
2022-09-21T13:28:09.203Z,61.38
2022-09-21T13:30:42.663Z,62.69
2022-09-21T13:33:33.838Z,62.93
2022-09-21T13:36:12.479Z,63.45
2022-09-21T13:39:06.104Z,63.42
2022-09-21T13:41:58.969Z,62.68
2022-09-21T13:44:42.410Z,62.18
2022-09-21T13:47:11.376Z,63.21
2022-09-21T13:49:53.257Z,62.61
2022-09-21T13:52:29.429Z,52.22
2022-09-21T13:55:00.287Z,62.25
2022-09-21T13:57:36.771Z,62.60
2022-09-21T14:00:32.138Z,60.36
2022-09-21T14:03:08.024Z,62.28
2022-09-21T14:05:41.560Z,61.90
2022-09-21T14:08:23.030Z,62.57
2022-09-21T14:10:57.016Z,62.35
2022-09-21T14:13:30.802Z,62.14
2022-09-21T14:16:34.306Z,61.67
2022-09-21T14:19:05.389Z,61.71
2022-09-21T14:21:33.469Z,61.21
2022-09-21T14:24:43.052Z,61.21
2022-09-21T14:27:17.695Z,61.43
2022-09-21T14:29:49.702Z,60.96
2022-09-21T14:32:23.453Z,61.55
2022-09-21T14:34:57.922Z,62.05
2022-09-21T14:37:31.882Z,61.83
2022-09-21T14:40:04.090Z,61.36
2022-09-21T14:42:33.079Z,61.47
2022-09-21T14:45:02.395Z,62.11
2022-09-21T14:48:02.649Z,61.27
2022-09-21T14:50:37.273Z,61.73
2022-09-21T14:53:20.057Z,61.99
2022-09-21T14:56:11.984Z,61.65
2022-09-21T14:58:54.792Z,61.79
2022-09-21T15:01:36.452Z,61.92
2022-09-21T15:04:30.209Z,62.08
2022-09-21T15:07:40.779Z,62.78
2022-09-21T15:10:38.032Z,63.22
2022-09-21T15:13:20.256Z,63.86
2022-09-21T15:16:01.164Z,63.37
2022-09-21T15:18:30.692Z,62.59
2022-09-21T15:21:03.368Z,62.11
2022-09-21T15:23:35.875Z,62.28
2022-09-21T15:26:08.867Z,62.56
2022-09-21T15:29:08.331Z,61.28
2022-09-21T15:31:38.112Z,61.85
2022-09-21T15:34:07.756Z,62.12
2022-09-21T15:36:38.155Z,61.92
2022-09-21T15:39:09.364Z,61.98
2022-09-21T15:41:49.373Z,61.47
2022-09-21T15:44:19.395Z,61.61
2022-09-21T15:46:49.463Z,62.22
2022-09-21T15:53:10.183Z,62.34
2022-09-21T15:55:39.308Z,62.54
2022-09-21T15:58:56.011Z,61.46
2022-09-21T16:01:26.240Z,62.80
2022-09-21T16:04:07.720Z,62.43
2022-09-21T16:19:06.922Z,63.30
2022-09-21T16:21:37.742Z,63.25
2022-09-21T16:24:21.347Z,63.38
2022-09-21T16:26:56.759Z,58.62
2022-09-21T16:29:27.103Z,63.71
2022-09-21T16:32:26.427Z,63.66
2022-09-21T16:35:25.286Z,63.57
2022-09-21T16:38:01.341Z,64.44
2022-09-21T16:40:31.492Z,64.93
2022-09-21T16:42:59.950Z,65.25
2022-09-21T16:45:31.317Z,65.26
2022-09-21T16:47:59.408Z,65.42
2022-09-21T16:50:28.806Z,65.17
2022-09-21T16:52:56.986Z,65.00
2022-09-21T16:55:28.981Z,65.62
2022-09-21T16:57:57.409Z,65.25
2022-09-21T17:00:25.673Z,65.45
2022-09-21T17:02:53.640Z,65.90
2022-09-21T17:05:21.759Z,65.72
2022-09-21T17:07:54.670Z,65.52
2022-09-21T17:10:27.319Z,65.83
2022-09-21T17:12:55.500Z,66.00
2022-09-21T17:15:24.112Z,66.00
2022-09-21T17:17:54.783Z,65.80
2022-09-21T17:20:32.161Z,66.40
2022-09-21T17:23:03.162Z,66.59
2022-09-21T17:25:32.541Z,66.71
2022-09-21T17:28:03.262Z,66.56
2022-09-21T17:30:32.134Z,66.68
2022-09-21T17:33:01.165Z,66.78
2022-09-21T17:35:33.600Z,66.53
2022-09-21T17:38:03.411Z,67.13
2022-09-21T17:40:32.607Z,67.10
2022-09-21T17:43:14.851Z,67.44
2022-09-21T17:45:50.398Z,67.64
2022-09-21T17:48:20.737Z,67.82
2022-09-21T17:50:49.167Z,67.94
2022-09-21T17:53:41.689Z,67.79
2022-09-21T17:56:30.169Z,67.82
2022-09-21T17:59:01.544Z,67.73
2022-09-21T18:01:33.845Z,67.86
2022-09-21T18:04:02.328Z,67.81
2022-09-21T18:06:34.650Z,67.94
2022-09-21T18:09:05.343Z,68.06
2022-09-21T18:11:48.304Z,68.14
2022-09-21T18:14:25.898Z,68.20
2022-09-21T18:17:06.640Z,68.16
2022-09-21T18:19:50.502Z,68.42
2022-09-21T18:22:27.519Z,68.82
2022-09-21T18:24:58.255Z,68.51
2022-09-21T18:27:26.446Z,68.74
2022-09-21T18:29:55.088Z,68.57
2022-09-21T18:32:36.271Z,68.51
2022-09-21T18:35:22.779Z,68.65
2022-09-21T18:38:02.830Z,68.87
2022-09-21T18:40:38.708Z,69.05
2022-09-21T18:43:20.054Z,68.85
2022-09-21T18:45:54.065Z,69.64
2022-09-21T18:49:02.772Z,69.36
2022-09-21T18:51:40.302Z,69.21
2022-09-21T18:54:14.160Z,69.05
2022-09-21T18:56:43.822Z,69.15
2022-09-21T18:59:13.882Z,69.30
2022-09-21T19:01:42.493Z,69.27
2022-09-21T19:04:11.859Z,69.30
2022-09-21T19:06:50.508Z,69.18
2022-09-21T19:09:43.752Z,68.77
2022-09-21T19:12:21.652Z,69.17
2022-09-21T19:15:08.949Z,68.84
2022-09-21T19:17:52.677Z,69.06
2022-09-21T19:20:39.191Z,69.20
2022-09-21T19:23:16.800Z,69.28
2022-09-21T19:25:49.987Z,69.12
2022-09-21T19:28:37.067Z,69.25
2022-09-21T19:31:11.265Z,69.78
2022-09-21T19:33:50.101Z,69.63
2022-09-21T19:36:24.126Z,69.54
2022-09-21T19:38:53.214Z,69.90
2022-09-21T19:41:38.656Z,69.95
2022-09-21T19:44:21.098Z,69.60
2022-09-21T19:46:58.545Z,69.71
2022-09-21T19:49:37.126Z,69.54
2022-09-21T19:52:06.651Z,69.63
2022-09-21T19:55:00.965Z,69.78
2022-09-21T19:57:47.417Z,70.25
2022-09-21T20:00:19.080Z,70.18
2022-09-21T20:02:57.514Z,70.36
2022-09-21T20:05:38.700Z,70.22
2022-09-21T20:08:15.329Z,70.18
2022-09-21T20:10:55.106Z,70.26
2022-09-21T20:13:32.990Z,70.20
2022-09-21T20:16:20.617Z,70.74
2022-09-21T20:18:55.533Z,70.52
2022-09-21T20:21:26.736Z,70.22
2022-09-21T20:23:59.875Z,70.78
2022-09-21T20:26:28.863Z,70.62
2022-09-21T20:28:57.792Z,70.84
2022-09-21T20:31:27.451Z,70.84
2022-09-21T20:33:55.266Z,70.66
2022-09-21T20:36:23.089Z,70.68
2022-09-21T20:38:51.495Z,70.61
2022-09-21T20:41:21.983Z,70.89
2022-09-21T20:43:52.083Z,70.75
2022-09-21T20:46:20.112Z,71.00
2022-09-21T20:48:52.861Z,70.84
2022-09-21T20:51:21.082Z,71.07
2022-09-21T20:53:49.722Z,70.68
2022-09-21T20:56:17.874Z,71.45
2022-09-21T20:58:45.871Z,71.46
2022-09-21T21:01:13.771Z,71.29
2022-09-21T21:03:41.827Z,71.15
2022-09-21T21:06:13.734Z,71.20
2022-09-21T21:08:41.830Z,70.92
2022-09-21T21:11:10.880Z,70.92
2022-09-21T21:13:38.952Z,71.04
2022-09-21T21:16:11.750Z,71.02
2022-09-21T21:18:41.004Z,70.95
2022-09-21T21:21:09.013Z,71.20
2022-09-21T21:23:52.335Z,70.93
2022-09-21T21:26:20.207Z,71.76
2022-09-21T21:28:48.512Z,71.75
2022-09-21T21:31:21.305Z,71.84
2022-09-21T21:33:50.000Z,71.73
2022-09-21T21:36:18.422Z,72.18
2022-09-21T21:38:54.595Z,71.99
2022-09-21T21:41:23.692Z,71.73
2022-09-21T21:43:52.590Z,71.71
2022-09-21T21:46:23.712Z,72.01
2022-09-21T21:48:53.025Z,72.11
2022-09-21T21:51:21.604Z,72.29
2022-09-21T21:53:51.652Z,72.52
2022-09-21T21:56:20.450Z,72.54
2022-09-21T21:58:48.347Z,72.77
2022-09-21T22:01:19.257Z,72.19
2022-09-21T22:03:47.111Z,72.41
2022-09-21T22:06:15.172Z,72.89
2022-09-21T22:08:43.085Z,72.42
2022-09-21T22:11:12.698Z,72.75
2022-09-21T22:13:41.307Z,72.87
2022-09-21T22:16:11.958Z,72.72
2022-09-21T22:18:40.824Z,72.64
2022-09-21T22:21:12.662Z,72.21
2022-09-21T22:23:41.081Z,72.37
2022-09-21T22:26:11.226Z,72.83
2022-09-21T22:28:41.830Z,72.44
2022-09-21T22:31:14.592Z,72.61
2022-09-21T22:33:43.206Z,72.74
2022-09-21T22:36:12.876Z,72.59
2022-09-21T22:38:43.071Z,72.99
2022-09-21T22:41:17.066Z,72.56
2022-09-21T22:43:47.064Z,72.47
2022-09-21T22:46:16.326Z,72.61
2022-09-21T22:48:44.855Z,72.64
2022-09-21T22:51:13.362Z,72.88
2022-09-21T22:53:42.097Z,72.52
2022-09-21T22:56:12.145Z,72.51
2022-09-21T22:58:41.844Z,72.30
2022-09-21T23:01:13.561Z,72.66
2022-09-21T23:03:42.927Z,73.36
2022-09-21T23:06:13.529Z,73.03
2022-09-21T23:08:41.623Z,72.60
2022-09-21T23:11:11.383Z,73.50
2022-09-21T23:13:39.280Z,72.76
2022-09-21T23:16:09.611Z,73.39
2022-09-21T23:18:40.579Z,73.34
2022-09-21T23:21:11.944Z,73.61
2022-09-21T23:23:39.963Z,73.04
2022-09-21T23:26:09.714Z,73.21
2022-09-21T23:28:38.860Z,73.00
2022-09-21T23:31:09.422Z,73.47
2022-09-21T23:33:40.244Z,73.35
2022-09-21T23:36:09.847Z,73.71
2022-09-21T23:38:38.421Z,73.34
2022-09-21T23:41:08.014Z,73.50
2022-09-21T23:43:38.154Z,73.33
2022-09-21T23:46:07.551Z,73.54
2022-09-21T23:48:35.762Z,73.78
2022-09-21T23:51:05.598Z,73.68
2022-09-21T23:53:33.505Z,73.83
2022-09-21T23:56:01.622Z,74.38
2022-09-21T23:58:29.931Z,74.06
